首页
METAR-TAF:

METAR-TAF

机场 :

Cerklje ob Krki, 斯洛文尼亚

纬度: 45-53-59N, 经度: 15-30-55E, 海拔: 157米

当前天气观测

该预报发布于34分钟前的05:30 UTC
风速3节,风向西,在西转西南西北之间变化
温度 11°C
湿度 87%
气压 1027 hPa
能见度10公里或以上
1500米以下无云,无积雨云

METAR: LJCE 250530Z 27003KT 240V320 CAVOK 11/09 Q1027 RMK BLU

时间: 08:04 (06:04 UTC)

预报

该预报发布于1小时和4分钟前的05:00 UTC
预报有效从25日的 06点(UTC)到 25日的 15点(UTC)
风速2节,风向多变
能见度10公里或以上
1500米以下无云,无积雨云
短暂存在
从 25日的 10点(UTC)到 25日的 15点(UTC)
多云层高于5000英尺, 塔状积云.
阵雨
几率 30% :
短暂存在
从 25日的 14点(UTC)到 25日的 15点(UTC)
风速10节,风向多变
多云层高于4000英尺, 积雨云.
雷暴, 雨

TAF: LJCE 250500Z 2506/2515 VRB02KT CAVOK TEMPO 2510/2515 SHRA BKN050TCU PROB30 TEMPO 2514/2515 VRB10KT TSRA BKN040CB

超过4000个机场的气象观测和天气预报(METAR&TAF报告)。

可查询的气象台以黄色和红色小点在地图上表示。

将鼠标移到小点上方,可查看气象台名称。

然后点击查看天气观测和预报。

如需切换地图:点击带黑十字的绿色按钮放大地图;点击带横线的绿色按钮缩小地图;或者点击绿色箭头查看邻近地区的地图。


METAR-TAF: